createdAt,value
2019-03-09T00:01:06.893Z,4.60
2019-03-09T00:03:38.027Z,5.10
2019-03-09T00:06:06.858Z,5.30
2019-03-09T00:08:35.780Z,4.03
2019-03-09T00:11:04.864Z,5.13
2019-03-09T00:13:33.626Z,4.00
2019-03-09T00:16:02.978Z,4.07
2019-03-09T00:18:31.751Z,4.03
2019-03-09T00:21:00.556Z,4.13
2019-03-09T00:24:09.526Z,3.77
2019-03-09T00:26:43.722Z,3.50
2019-03-09T00:29:18.658Z,3.43
2019-03-09T00:31:56.010Z,3.73
2019-03-09T00:34:25.001Z,3.67
2019-03-09T00:36:53.828Z,4.60
2019-03-09T00:39:22.619Z,4.70
2019-03-09T00:41:51.431Z,3.40
2019-03-09T00:44:20.212Z,3.40
2019-03-09T00:46:48.987Z,3.20
2019-03-09T00:49:18.366Z,3.77
2019-03-09T00:51:47.816Z,3.60
2019-03-09T00:54:17.324Z,3.23
2019-03-09T00:56:46.094Z,3.77
2019-03-09T00:59:15.223Z,3.70
2019-03-09T01:01:44.005Z,4.13
2019-03-09T01:04:12.804Z,4.33
2019-03-09T01:06:42.192Z,4.00
2019-03-09T01:09:11.004Z,4.23
2019-03-09T01:11:40.386Z,4.03
2019-03-09T01:14:09.194Z,3.60
2019-03-09T01:16:38.059Z,4.07
2019-03-09T01:19:06.836Z,4.03
2019-03-09T01:21:36.901Z,3.77
2019-03-09T01:24:06.142Z,4.57
2019-03-09T01:26:36.291Z,4.13
2019-03-09T01:29:07.677Z,4.23
2019-03-09T01:31:36.515Z,4.30
2019-03-09T01:34:06.359Z,3.63
2019-03-09T01:36:35.151Z,3.67
2019-03-09T01:39:04.204Z,4.07
2019-03-09T01:41:33.730Z,3.70
2019-03-09T01:44:02.492Z,4.13
2019-03-09T01:46:31.307Z,3.97
2019-03-09T01:49:00.116Z,3.67
2019-03-09T01:51:28.924Z,4.40
2019-03-09T01:53:57.690Z,3.83
2019-03-09T01:56:27.528Z,4.50
2019-03-09T01:58:56.366Z,4.10
2019-03-09T02:01:25.169Z,4.50
2019-03-09T02:03:54.045Z,3.80
2019-03-09T02:06:22.833Z,4.20
2019-03-09T02:08:51.675Z,4.53
2019-03-09T02:11:21.967Z,4.40
2019-03-09T02:13:50.755Z,4.90
2019-03-09T02:16:19.479Z,5.03
2019-03-09T02:18:48.292Z,5.60
2019-03-09T02:21:17.098Z,5.33
2019-03-09T02:23:45.901Z,5.03
2019-03-09T02:26:14.748Z,6.07
2019-03-09T02:28:43.543Z,6.60
2019-03-09T02:31:12.338Z,6.30
2019-03-09T02:33:41.173Z,6.23
2019-03-09T02:36:09.974Z,6.97
2019-03-09T02:38:43.711Z,7.17
2019-03-09T02:41:12.860Z,6.33
2019-03-09T02:43:41.644Z,6.97
2019-03-09T02:46:10.964Z,7.37
2019-03-09T02:48:39.715Z,7.77
2019-03-09T02:51:09.378Z,9.13
2019-03-09T02:53:38.310Z,8.87
2019-03-09T02:56:07.151Z,8.77
2019-03-09T02:58:37.184Z,7.40
2019-03-09T03:01:17.138Z,8.63
2019-03-09T03:03:45.924Z,9.03
2019-03-09T03:06:14.741Z,9.60
2019-03-09T03:08:43.543Z,8.10
2019-03-09T03:11:12.330Z,7.90
2019-03-09T03:13:41.743Z,7.37
2019-03-09T03:16:11.760Z,7.93
2019-03-09T03:18:40.563Z,7.33
2019-03-09T03:21:09.943Z,8.50
2019-03-09T03:23:40.594Z,7.83
2019-03-09T03:26:09.400Z,7.07
2019-03-09T03:28:38.207Z,8.00
2019-03-09T03:31:07.125Z,8.00
2019-03-09T03:33:35.970Z,8.70
2019-03-09T03:36:04.711Z,8.43
2019-03-09T03:38:33.503Z,8.87
2019-03-09T03:41:02.268Z,8.80
2019-03-09T03:43:31.096Z,9.50
2019-03-09T03:45:59.879Z,8.57
2019-03-09T03:48:28.728Z,8.57
2019-03-09T03:50:57.511Z,8.63
2019-03-09T03:53:26.303Z,8.67
2019-03-09T03:55:55.094Z,7.93
2019-03-09T03:58:23.937Z,8.80
2019-03-09T04:00:52.722Z,8.50
2019-03-09T04:03:22.687Z,7.70
2019-03-09T04:05:52.342Z,7.57
2019-03-09T04:08:21.135Z,7.93
2019-03-09T04:10:49.938Z,7.80
2019-03-09T04:13:20.150Z,8.63
2019-03-09T04:15:49.624Z,6.80
2019-03-09T04:18:19.373Z,7.03
2019-03-09T04:20:48.174Z,7.47
2019-03-09T04:23:17.005Z,7.43
2019-03-09T04:25:45.785Z,6.60
2019-03-09T04:28:14.560Z,6.83
2019-03-09T04:30:44.210Z,8.00
2019-03-09T04:33:14.824Z,7.60
2019-03-09T04:35:43.585Z,7.50
2019-03-09T04:38:12.910Z,7.60
2019-03-09T04:40:41.744Z,6.93
2019-03-09T04:43:10.530Z,6.10
2019-03-09T04:45:40.390Z,6.37
2019-03-09T04:48:09.498Z,6.40
2019-03-09T04:50:38.941Z,6.30
2019-03-09T04:53:07.783Z,5.90
2019-03-09T04:55:36.579Z,5.57
2019-03-09T04:58:06.771Z,6.17
2019-03-09T05:00:35.628Z,4.50
2019-03-09T05:03:04.441Z,5.40
2019-03-09T05:05:33.305Z,5.80
2019-03-09T05:08:07.063Z,5.07
2019-03-09T05:10:55.597Z,5.60
2019-03-09T05:13:29.023Z,4.60
2019-03-09T05:15:57.818Z,4.93
2019-03-09T05:18:26.690Z,5.73
2019-03-09T05:20:56.254Z,5.07
2019-03-09T05:23:26.275Z,5.23
2019-03-09T05:25:55.627Z,5.47
2019-03-09T05:28:24.820Z,5.07
2019-03-09T05:30:53.651Z,5.57
2019-03-09T05:33:22.474Z,4.20
2019-03-09T05:35:51.235Z,4.60
2019-03-09T05:38:21.037Z,4.50
2019-03-09T05:40:49.807Z,4.23
2019-03-09T05:43:18.623Z,4.60
2019-03-09T05:45:47.411Z,4.80
2019-03-09T05:48:16.255Z,4.43
2019-03-09T05:50:45.450Z,4.43
2019-03-09T05:53:20.932Z,3.50
2019-03-09T05:55:53.535Z,4.20
2019-03-09T05:58:22.356Z,4.50
2019-03-09T06:00:51.142Z,4.30
2019-03-09T06:03:19.902Z,3.77
2019-03-09T06:05:54.740Z,4.27
2019-03-09T06:08:23.502Z,3.97
2019-03-09T06:10:52.362Z,4.37
2019-03-09T06:13:22.081Z,3.87
2019-03-09T06:15:50.858Z,3.87
2019-03-09T06:18:19.646Z,4.50
2019-03-09T06:20:50.093Z,4.43
2019-03-09T06:23:18.870Z,3.97
2019-03-09T06:25:47.672Z,4.13
2019-03-09T06:28:16.453Z,4.00
2019-03-09T06:30:45.948Z,4.10
2019-03-09T06:33:18.460Z,3.83
2019-03-09T06:35:49.161Z,3.53
2019-03-09T06:38:59.961Z,3.70
2019-03-09T06:41:33.672Z,3.70
2019-03-09T06:44:02.463Z,3.93
2019-03-09T06:46:31.340Z,3.57
2019-03-09T06:49:00.120Z,3.37
2019-03-09T06:51:28.903Z,3.63
2019-03-09T06:53:57.683Z,3.80
2019-03-09T06:56:27.808Z,4.33
2019-03-09T06:58:56.564Z,4.20
2019-03-09T07:01:25.354Z,3.90
2019-03-09T07:03:54.269Z,3.67
2019-03-09T07:06:23.060Z,3.93
2019-03-09T07:08:51.848Z,4.47
2019-03-09T07:11:20.719Z,3.67
2019-03-09T07:13:53.141Z,3.60
2019-03-09T07:16:18.735Z,3.40
2019-03-09T07:18:47.510Z,3.80
2019-03-09T07:21:16.305Z,3.83
2019-03-09T07:23:45.155Z,3.73
2019-03-09T07:26:14.541Z,3.93
2019-03-09T07:28:43.346Z,4.27
2019-03-09T07:31:13.452Z,4.63
2019-03-09T07:33:42.478Z,4.53
2019-03-09T07:36:12.214Z,4.23
2019-03-09T07:38:41.151Z,5.00
2019-03-09T07:41:09.937Z,4.43
2019-03-09T07:43:38.807Z,5.00
2019-03-09T07:46:08.219Z,5.13
2019-03-09T07:48:38.487Z,6.00
2019-03-09T07:51:07.355Z,5.40
2019-03-09T07:53:36.771Z,6.47
2019-03-09T07:56:05.640Z,6.43
2019-03-09T07:58:34.455Z,5.87
2019-03-09T08:01:03.326Z,6.10
2019-03-09T08:03:32.325Z,5.83
2019-03-09T08:06:01.135Z,6.83
2019-03-09T08:08:30.767Z,9.80
2019-03-09T08:10:59.670Z,7.83
2019-03-09T08:13:28.454Z,6.27
2019-03-09T08:15:57.267Z,6.33
2019-03-09T08:18:27.177Z,6.33
2019-03-09T08:20:56.026Z,5.90
2019-03-09T08:23:24.828Z,6.17
2019-03-09T08:25:53.671Z,6.00
2019-03-09T08:28:23.189Z,5.50
2019-03-09T08:30:51.985Z,5.40
2019-03-09T08:33:20.782Z,5.43
2019-03-09T08:35:49.573Z,4.90
2019-03-09T08:38:18.391Z,5.20
2019-03-09T08:40:48.607Z,4.97
2019-03-09T08:43:18.008Z,4.93
2019-03-09T08:45:47.489Z,4.50
2019-03-09T08:48:17.025Z,5.07
2019-03-09T08:50:46.684Z,5.17
2019-03-09T08:53:16.360Z,5.27
2019-03-09T08:55:46.211Z,4.20
2019-03-09T08:58:15.020Z,4.30
2019-03-09T09:00:43.915Z,4.30
2019-03-09T09:03:12.688Z,4.30
2019-03-09T09:05:42.285Z,4.77
2019-03-09T09:08:11.703Z,3.90
2019-03-09T09:10:41.268Z,3.53
2019-03-09T09:13:10.054Z,4.13
2019-03-09T09:15:38.967Z,5.30
2019-03-09T09:18:07.805Z,4.63
2019-03-09T09:20:37.667Z,4.27
2019-03-09T09:23:06.479Z,3.90
2019-03-09T09:25:36.382Z,4.63
2019-03-09T09:28:07.462Z,4.80
2019-03-09T09:30:36.283Z,4.50
2019-03-09T09:33:06.060Z,4.73
2019-03-09T09:35:34.882Z,4.47
2019-03-09T09:38:04.316Z,4.23
2019-03-09T09:40:34.402Z,5.23
2019-03-09T09:43:03.194Z,4.50
2019-03-09T09:45:32.034Z,4.17
2019-03-09T09:48:00.843Z,4.93
2019-03-09T09:50:29.702Z,4.40
2019-03-09T09:52:58.519Z,4.63
2019-03-09T09:55:27.313Z,5.17
2019-03-09T09:57:56.094Z,4.43
2019-03-09T10:00:25.578Z,4.50
2019-03-09T10:02:54.362Z,3.97
2019-03-09T10:05:24.025Z,4.20
2019-03-09T10:07:54.625Z,4.50
2019-03-09T10:10:23.743Z,5.13
2019-03-09T10:12:52.518Z,4.90
2019-03-09T10:15:23.346Z,4.33
2019-03-09T10:17:52.155Z,5.07
2019-03-09T10:20:21.971Z,5.10
2019-03-09T10:22:50.895Z,5.47
2019-03-09T10:25:22.586Z,4.87
2019-03-09T10:27:51.406Z,5.23
2019-03-09T10:30:20.896Z,5.00
2019-03-09T10:32:50.191Z,5.50
2019-03-09T10:35:19.001Z,7.60
2019-03-09T10:37:47.818Z,6.43
2019-03-09T10:40:17.371Z,8.20
2019-03-09T10:42:46.293Z,7.80
2019-03-09T10:45:15.957Z,5.97
2019-03-09T10:47:44.799Z,4.83
2019-03-09T10:50:13.967Z,5.00
2019-03-09T10:52:42.759Z,4.53
2019-03-09T10:55:13.650Z,4.97
2019-03-09T10:57:42.470Z,5.17
2019-03-09T11:00:18.763Z,5.63
2019-03-09T11:02:47.549Z,4.80
2019-03-09T11:05:16.356Z,4.77
2019-03-09T11:07:46.291Z,4.57
2019-03-09T11:10:15.068Z,5.03
2019-03-09T11:12:45.196Z,5.20
2019-03-09T11:15:15.107Z,5.67
2019-03-09T11:17:43.942Z,6.03
2019-03-09T11:20:13.502Z,5.70
2019-03-09T11:22:42.972Z,4.30
2019-03-09T11:25:11.927Z,5.10
2019-03-09T11:27:40.765Z,5.10
2019-03-09T11:30:13.743Z,5.53
2019-03-09T11:32:42.515Z,5.70
2019-03-09T11:35:12.083Z,5.90
2019-03-09T11:37:40.908Z,6.70
2019-03-09T11:40:09.717Z,7.57
2019-03-09T11:42:38.570Z,7.23
2019-03-09T11:45:08.283Z,6.97
2019-03-09T11:47:38.084Z,7.33
2019-03-09T11:50:07.735Z,9.33
2019-03-09T11:52:36.703Z,8.90
2019-03-09T11:55:07.711Z,8.10
2019-03-09T11:57:36.616Z,8.53
2019-03-09T12:00:06.487Z,7.57
2019-03-09T12:02:38.964Z,7.60
2019-03-09T12:05:04.757Z,7.27
2019-03-09T12:07:33.590Z,7.37
2019-03-09T12:10:02.420Z,7.23
2019-03-09T12:12:31.911Z,7.97
2019-03-09T12:15:01.633Z,7.90
2019-03-09T12:17:31.128Z,7.67
2019-03-09T12:19:59.934Z,7.17
2019-03-09T12:22:28.848Z,6.73
2019-03-09T12:24:57.585Z,6.80
2019-03-09T12:27:27.438Z,6.70
2019-03-09T12:29:57.299Z,7.73
2019-03-09T12:32:26.156Z,6.77
2019-03-09T12:34:54.929Z,6.97
2019-03-09T12:37:24.318Z,7.43
2019-03-09T12:39:54.295Z,5.70
2019-03-09T12:42:23.080Z,5.37
2019-03-09T12:44:51.871Z,6.17
2019-03-09T12:47:22.256Z,6.37
2019-03-09T12:49:51.049Z,5.93
2019-03-09T12:52:19.906Z,6.97
2019-03-09T12:54:49.312Z,7.87
2019-03-09T12:57:20.220Z,6.80
2019-03-09T12:59:49.014Z,8.80
2019-03-09T13:02:17.795Z,7.80
2019-03-09T13:04:46.641Z,7.93
2019-03-09T13:07:17.185Z,8.67
2019-03-09T13:09:45.982Z,7.50
2019-03-09T13:12:14.795Z,8.57
2019-03-09T13:14:43.677Z,8.37
2019-03-09T13:17:12.544Z,9.33
2019-03-09T13:19:41.406Z,9.13
2019-03-09T13:22:10.829Z,8.03
2019-03-09T13:24:39.724Z,8.93
2019-03-09T13:27:08.695Z,8.70
2019-03-09T13:29:37.712Z,9.07
2019-03-09T13:32:07.066Z,8.40
2019-03-09T13:34:36.079Z,8.37
2019-03-09T13:37:06.965Z,8.03
2019-03-09T13:39:35.972Z,8.43
2019-03-09T13:42:04.789Z,9.83
2019-03-09T13:44:34.120Z,9.97
2019-03-09T13:47:04.415Z,9.13
2019-03-09T13:49:32.443Z,8.93
2019-03-09T13:52:02.348Z,8.67
2019-03-09T13:54:31.423Z,6.47
2019-03-09T13:57:00.892Z,6.20
2019-03-09T13:59:31.471Z,6.40
2019-03-09T14:02:00.264Z,7.20
2019-03-09T14:04:29.759Z,6.83
2019-03-09T14:06:58.687Z,5.67
2019-03-09T14:09:27.583Z,5.83
2019-03-09T14:11:58.099Z,5.53
2019-03-09T14:14:26.973Z,5.97
2019-03-09T14:16:55.846Z,6.23
2019-03-09T14:19:24.675Z,6.40
2019-03-09T14:21:54.384Z,6.67
2019-03-09T14:24:23.299Z,3.30
2019-03-09T14:26:52.088Z,4.57
2019-03-09T14:29:20.867Z,4.23
2019-03-09T14:31:49.710Z,3.07
2019-03-09T14:34:19.039Z,2.57
2019-03-09T14:36:47.815Z,1.57
2019-03-09T14:39:16.588Z,1.40
2019-03-09T14:41:46.214Z,1.40
2019-03-09T14:44:17.293Z,1.00
2019-03-09T14:46:46.843Z,1.30
2019-03-09T14:49:15.740Z,2.27
2019-03-09T14:51:45.603Z,2.00
2019-03-09T14:54:14.427Z,1.37
2019-03-09T14:56:43.260Z,1.27
2019-03-09T14:59:12.073Z,1.40
2019-03-09T15:01:41.953Z,1.57
2019-03-09T15:04:10.757Z,2.30
2019-03-09T15:06:39.789Z,2.77
2019-03-09T15:09:08.725Z,3.60
2019-03-09T15:11:37.641Z,3.97
2019-03-09T15:14:06.433Z,2.70
2019-03-09T15:16:35.210Z,3.43
2019-03-09T15:19:04.752Z,3.03
2019-03-09T15:21:37.884Z,2.27
2019-03-09T15:24:08.140Z,2.63
2019-03-09T15:26:38.723Z,2.90
2019-03-09T15:29:18.968Z,2.37
2019-03-09T15:31:59.075Z,2.27
2019-03-09T15:34:34.226Z,2.20
2019-03-09T15:37:03.623Z,1.77
2019-03-09T15:39:35.303Z,2.00
2019-03-09T15:42:04.740Z,1.93
2019-03-09T15:44:33.844Z,2.10
2019-03-09T15:47:03.378Z,1.80
2019-03-09T15:49:38.054Z,1.90
2019-03-09T15:52:07.340Z,2.47
2019-03-09T15:54:37.604Z,2.57
2019-03-09T15:57:09.898Z,2.70
2019-03-09T15:59:38.855Z,2.67
2019-03-09T16:02:10.663Z,2.77
2019-03-09T16:04:39.538Z,2.43
2019-03-09T16:07:09.202Z,4.70
2019-03-09T16:09:39.268Z,3.37
2019-03-09T16:12:08.121Z,3.07
2019-03-09T16:14:37.062Z,2.67
2019-03-09T16:17:07.215Z,2.50
2019-03-09T16:19:39.696Z,2.70
2019-03-09T16:22:09.513Z,2.97
2019-03-09T16:24:39.031Z,3.00
2019-03-09T16:27:08.701Z,2.77
2019-03-09T16:29:39.628Z,5.43
2019-03-09T16:32:08.559Z,5.17
2019-03-09T16:34:37.836Z,3.07
2019-03-09T16:37:08.470Z,3.20
2019-03-09T16:39:37.951Z,2.73
2019-03-09T16:42:08.506Z,2.73
2019-03-09T16:44:37.543Z,3.20
2019-03-09T16:47:06.615Z,2.60
2019-03-09T16:49:35.447Z,2.73
2019-03-09T16:52:05.888Z,2.30
2019-03-09T16:54:36.203Z,2.70
2019-03-09T16:57:06.703Z,3.50
2019-03-09T16:59:37.595Z,3.63
2019-03-09T17:02:06.407Z,2.60
2019-03-09T17:04:35.899Z,2.70
2019-03-09T17:07:05.031Z,2.80
2019-03-09T17:09:40.383Z,2.60
2019-03-09T17:12:10.559Z,2.30
2019-03-09T17:14:40.064Z,2.73
2019-03-09T17:17:17.637Z,2.27
2019-03-09T17:19:47.182Z,1.80
2019-03-09T17:22:16.750Z,2.37
2019-03-09T17:24:49.711Z,2.30
2019-03-09T17:27:25.398Z,1.80
2019-03-09T17:30:02.158Z,1.67
2019-03-09T17:32:32.771Z,2.30
2019-03-09T17:35:10.332Z,2.03
2019-03-09T17:37:42.695Z,2.40
2019-03-09T17:40:11.960Z,2.13
2019-03-09T17:42:41.846Z,2.57
2019-03-09T17:45:16.171Z,3.00
2019-03-09T17:47:45.127Z,3.33
2019-03-09T17:50:14.150Z,2.67
2019-03-09T17:52:44.409Z,2.43
2019-03-09T17:55:15.870Z,2.20
2019-03-09T17:57:44.669Z,2.40
2019-03-09T18:00:17.477Z,2.50
2019-03-09T18:02:47.475Z,2.83
2019-03-09T18:05:16.409Z,2.43
2019-03-09T18:07:49.333Z,3.47
2019-03-09T18:10:26.581Z,2.10
2019-03-09T18:12:56.347Z,2.63
2019-03-09T18:15:28.294Z,2.73
2019-03-09T18:17:58.495Z,2.73
2019-03-09T18:20:37.706Z,3.27
2019-03-09T18:23:06.821Z,2.57
2019-03-09T18:25:36.559Z,2.53
2019-03-09T18:28:06.585Z,2.83
2019-03-09T18:30:35.708Z,3.10
2019-03-09T18:33:05.770Z,2.73
2019-03-09T18:35:35.870Z,2.83
2019-03-09T18:38:06.754Z,3.00
2019-03-09T18:40:36.818Z,3.27
2019-03-09T18:43:06.616Z,2.37
2019-03-09T18:45:40.726Z,3.43
2019-03-09T18:48:11.975Z,2.93
2019-03-09T18:50:49.522Z,3.10
2019-03-09T18:53:30.849Z,5.03
2019-03-09T18:56:02.647Z,4.90
2019-03-09T18:58:32.803Z,4.00
2019-03-09T19:01:02.728Z,3.20
2019-03-09T19:03:33.446Z,3.27
2019-03-09T19:06:02.652Z,2.57
2019-03-09T19:08:33.962Z,3.67
2019-03-09T19:11:03.168Z,4.50
2019-03-09T19:13:37.044Z,5.67
2019-03-09T19:16:09.013Z,5.10
2019-03-09T19:18:45.210Z,4.20
2019-03-09T19:21:14.743Z,5.73
2019-03-09T19:23:43.619Z,8.73
2019-03-09T19:26:16.926Z,18.50
2019-03-09T19:28:48.018Z,13.20
2019-03-09T19:31:19.800Z,9.07
2019-03-09T19:33:57.576Z,6.63
2019-03-09T19:36:26.853Z,6.93
2019-03-09T19:38:56.191Z,11.13
2019-03-09T19:41:26.571Z,7.80
2019-03-09T19:43:55.486Z,4.93
2019-03-09T19:46:25.448Z,5.57
2019-03-09T19:48:55.760Z,6.87
2019-03-09T19:51:24.590Z,8.20
2019-03-09T19:53:53.407Z,7.00
2019-03-09T19:56:22.240Z,6.20
2019-03-09T19:58:52.433Z,5.87
2019-03-09T20:01:21.286Z,5.03
2019-03-09T20:03:50.915Z,4.97
2019-03-09T20:06:19.674Z,3.93
2019-03-09T20:08:48.512Z,6.20
2019-03-09T20:11:17.398Z,5.07
2019-03-09T20:13:47.791Z,5.00
2019-03-09T20:16:16.586Z,6.70
2019-03-09T20:18:45.600Z,6.60
2019-03-09T20:21:14.528Z,4.70
2019-03-09T20:23:43.335Z,5.20
2019-03-09T20:26:12.164Z,4.97
2019-03-09T20:28:41.031Z,7.97
2019-03-09T20:31:09.821Z,6.83
2019-03-09T20:33:38.671Z,5.50
2019-03-09T20:36:08.711Z,4.60
2019-03-09T20:38:37.615Z,4.47
2019-03-09T20:41:06.523Z,4.50
2019-03-09T20:43:35.327Z,4.43
2019-03-09T20:46:04.148Z,4.33
2019-03-09T20:48:32.983Z,5.10
2019-03-09T20:51:02.357Z,7.57
2019-03-09T20:53:31.147Z,11.60
2019-03-09T20:55:59.931Z,11.10
2019-03-09T20:58:28.715Z,8.57
2019-03-09T21:00:58.075Z,7.30
2019-03-09T21:03:26.900Z,6.67
2019-03-09T21:05:56.235Z,4.97
2019-03-09T21:08:25.113Z,5.83
2019-03-09T21:11:03.468Z,5.87
2019-03-09T21:13:23.242Z,4.60
2019-03-09T21:15:52.445Z,4.47
2019-03-09T21:18:22.268Z,4.13
2019-03-09T21:20:51.107Z,5.60
2019-03-09T21:23:19.946Z,4.67
2019-03-09T21:25:49.665Z,4.30
2019-03-09T21:28:18.536Z,4.80
2019-03-09T21:30:47.388Z,4.20
2019-03-09T21:33:16.730Z,4.73
2019-03-09T21:35:45.603Z,4.20
2019-03-09T21:38:14.435Z,4.23
2019-03-09T21:40:43.219Z,4.13
2019-03-09T21:43:12.066Z,5.10
2019-03-09T21:45:40.897Z,3.90
2019-03-09T21:48:09.724Z,3.47
2019-03-09T21:50:38.641Z,4.93
2019-03-09T21:53:07.494Z,5.43
2019-03-09T21:55:36.275Z,4.00
2019-03-09T21:58:05.064Z,4.93
2019-03-09T22:00:33.891Z,4.57
2019-03-09T22:03:02.817Z,5.07
2019-03-09T22:05:31.612Z,5.50
2019-03-09T22:08:00.446Z,4.87
2019-03-09T22:10:29.226Z,3.80
2019-03-09T22:12:58.346Z,4.30
2019-03-09T22:15:27.269Z,5.07
2019-03-09T22:17:56.124Z,3.97
2019-03-09T22:20:24.915Z,3.77
2019-03-09T22:22:54.043Z,5.07
2019-03-09T22:25:22.933Z,4.33
2019-03-09T22:27:51.703Z,4.03
2019-03-09T22:30:20.483Z,4.73
2019-03-09T22:32:50.096Z,4.23
2019-03-09T22:35:18.877Z,4.93
2019-03-09T22:37:47.709Z,4.60
2019-03-09T22:40:16.521Z,4.57
2019-03-09T22:42:47.119Z,4.63
2019-03-09T22:45:16.581Z,4.60
2019-03-09T22:47:46.446Z,4.23
2019-03-09T22:50:15.948Z,4.73
2019-03-09T22:52:48.441Z,4.20
2019-03-09T22:55:17.213Z,5.33
2019-03-09T22:57:46.072Z,4.47
2019-03-09T23:00:19.680Z,5.97
2019-03-09T23:02:48.426Z,4.67
2019-03-09T23:05:17.214Z,4.50
2019-03-09T23:07:46.095Z,4.97
2019-03-09T23:10:15.765Z,4.20
2019-03-09T23:12:45.326Z,4.80
2019-03-09T23:15:14.869Z,5.47
2019-03-09T23:17:44.328Z,6.27
2019-03-09T23:20:14.419Z,5.13
2019-03-09T23:22:43.901Z,5.67
2019-03-09T23:25:13.139Z,5.53
2019-03-09T23:27:42.104Z,4.77
2019-03-09T23:30:14.503Z,6.03
2019-03-09T23:32:43.258Z,6.13
2019-03-09T23:35:12.088Z,5.00
2019-03-09T23:37:40.873Z,5.20
2019-03-09T23:40:09.700Z,5.67
2019-03-09T23:42:38.501Z,5.27
2019-03-09T23:45:09.079Z,4.23
2019-03-09T23:47:37.916Z,4.40
2019-03-09T23:50:08.170Z,4.63
2019-03-09T23:52:36.971Z,4.30
2019-03-09T23:55:06.507Z,4.73
2019-03-09T23:57:35.318Z,4.83
